createdAt,value
2023-07-17T00:00:06.821Z,100331.19
2023-07-17T00:02:33.597Z,100328.22
2023-07-17T00:05:00.041Z,100328.75
2023-07-17T00:07:27.146Z,100334.84
2023-07-17T00:09:53.701Z,100337.84
2023-07-17T00:12:20.220Z,100338.41
2023-07-17T00:14:46.713Z,100337.00
2023-07-17T00:17:13.830Z,100330.06
2023-07-17T00:19:40.577Z,100326.72
2023-07-17T00:22:08.465Z,100334.78
2023-07-17T00:24:35.260Z,100335.97
2023-07-17T00:27:02.738Z,100330.75
2023-07-17T00:29:29.998Z,100325.34
2023-07-17T00:31:56.876Z,100322.88
2023-07-17T00:34:23.447Z,100320.44
2023-07-17T00:36:50.142Z,100320.50
2023-07-17T00:39:16.687Z,100328.28
2023-07-17T00:41:43.234Z,100327.19
2023-07-17T00:44:10.461Z,100336.16
2023-07-17T00:46:37.491Z,100329.84
2023-07-17T00:49:06.865Z,100325.25
2023-07-17T00:51:33.990Z,100331.25
2023-07-17T00:54:01.518Z,100330.34
2023-07-17T00:56:31.249Z,100336.25
2023-07-17T00:58:58.821Z,100334.41
2023-07-17T01:01:27.093Z,100332.38
2023-07-17T01:03:56.624Z,100336.72
2023-07-17T01:06:26.892Z,100334.88
2023-07-17T01:08:53.744Z,100337.84
2023-07-17T01:11:20.266Z,100337.56
2023-07-17T01:13:47.578Z,100334.72
2023-07-17T01:16:14.907Z,100335.50
2023-07-17T01:18:42.104Z,100340.63
2023-07-17T01:21:12.587Z,100339.75
2023-07-17T01:23:39.287Z,100338.97
2023-07-17T01:26:16.513Z,100347.97
2023-07-17T01:28:44.371Z,100355.84
2023-07-17T01:31:11.629Z,100345.50
2023-07-17T01:33:38.765Z,100350.06
2023-07-17T01:36:06.849Z,100350.06
2023-07-17T01:38:34.764Z,100348.94
2023-07-17T01:41:01.697Z,100352.69
2023-07-17T01:43:28.317Z,100352.84
2023-07-17T01:45:54.767Z,100356.44
2023-07-17T01:48:21.288Z,100353.31
2023-07-17T01:50:48.225Z,100352.44
2023-07-17T01:53:20.069Z,100358.25
2023-07-17T01:55:47.320Z,100349.91
2023-07-17T01:58:13.937Z,100361.25
2023-07-17T02:00:40.435Z,100359.47
2023-07-17T02:03:07.082Z,100363.91
2023-07-17T02:05:33.669Z,100357.28
2023-07-17T02:08:00.199Z,100355.91
2023-07-17T02:10:26.696Z,100356.56
2023-07-17T02:12:53.152Z,100354.19
2023-07-17T02:15:19.752Z,100358.97
2023-07-17T02:17:46.265Z,100357.81
2023-07-17T02:20:14.482Z,100360.94
2023-07-17T02:22:42.384Z,100362.75
2023-07-17T02:25:09.551Z,100361.66
2023-07-17T02:27:36.275Z,100363.78
2023-07-17T02:30:04.403Z,100365.09
2023-07-17T02:32:31.498Z,100371.53
2023-07-17T02:34:58.193Z,100364.94
2023-07-17T02:37:25.132Z,100376.59
2023-07-17T02:39:52.459Z,100378.28
2023-07-17T02:42:19.133Z,100378.06
2023-07-17T02:44:47.791Z,100377.75
2023-07-17T02:47:15.469Z,100379.13
2023-07-17T02:49:43.050Z,100381.44
2023-07-17T02:52:10.177Z,100384.34
2023-07-17T02:54:38.264Z,100383.75
2023-07-17T02:57:05.851Z,100384.09
2023-07-17T02:59:32.445Z,100379.78
2023-07-17T03:01:59.223Z,100391.72
2023-07-17T03:04:26.503Z,100392.97
2023-07-17T03:06:53.142Z,100390.78
2023-07-17T03:09:19.660Z,100394.84
2023-07-17T03:11:46.142Z,100392.38
2023-07-17T03:14:12.622Z,100404.28
2023-07-17T03:16:39.145Z,100403.34
2023-07-17T03:19:05.681Z,100407.84
2023-07-17T03:21:33.182Z,100406.59
2023-07-17T03:24:01.189Z,100422.31
2023-07-17T03:26:27.835Z,100414.44
2023-07-17T03:28:54.530Z,100409.41
2023-07-17T03:31:21.261Z,100406.75
2023-07-17T03:33:48.034Z,100409.78
2023-07-17T03:36:14.636Z,100412.75
2023-07-17T03:38:42.054Z,100409.34
2023-07-17T03:41:08.535Z,100410.41
2023-07-17T03:43:34.976Z,100415.19
2023-07-17T03:46:01.456Z,100413.31
2023-07-17T03:48:27.946Z,100414.19
2023-07-17T03:50:54.410Z,100416.84
2023-07-17T03:53:20.917Z,100411.22
2023-07-17T03:55:47.398Z,100417.91
2023-07-17T03:58:13.858Z,100422.16
2023-07-17T04:00:40.367Z,100417.44
2023-07-17T04:03:06.931Z,100423.34
2023-07-17T04:05:33.506Z,100424.94
2023-07-17T04:08:02.159Z,100427.81
2023-07-17T04:10:29.973Z,100427.16
2023-07-17T04:12:56.586Z,100438.84
2023-07-17T04:15:23.138Z,100436.56
2023-07-17T04:17:49.677Z,100439.22
2023-07-17T04:20:17.450Z,100441.28
2023-07-17T04:22:44.091Z,100439.75
2023-07-17T04:25:10.643Z,100431.09
2023-07-17T04:27:37.199Z,100440.25
2023-07-17T04:30:04.486Z,100436.13
2023-07-17T04:32:31.018Z,100440.28
2023-07-17T04:34:57.995Z,100444.63
2023-07-17T04:37:24.437Z,100454.16
2023-07-17T04:39:51.188Z,100450.38
2023-07-17T04:42:17.644Z,100453.34
2023-07-17T04:44:47.283Z,100442.50
2023-07-17T04:47:13.914Z,100456.13
2023-07-17T04:49:40.519Z,100456.94
2023-07-17T04:52:07.423Z,100459.63
2023-07-17T04:54:34.328Z,100462.13
2023-07-17T04:57:00.855Z,100460.91
2023-07-17T04:59:27.299Z,100474.66
2023-07-17T05:01:53.743Z,100473.09
2023-07-17T05:04:21.435Z,100471.41
2023-07-17T05:06:47.869Z,100480.81
2023-07-17T05:09:14.459Z,100472.63
2023-07-17T05:11:42.982Z,100477.84
2023-07-17T05:14:09.732Z,100473.84
2023-07-17T05:16:36.399Z,100472.84
2023-07-17T05:19:02.955Z,100481.38
2023-07-17T05:21:29.465Z,100476.63
2023-07-17T05:23:55.928Z,100472.53
2023-07-17T05:26:22.822Z,100475.56
2023-07-17T05:28:50.389Z,100481.38
2023-07-17T05:31:17.297Z,100480.75
2023-07-17T05:33:44.399Z,100469.22
2023-07-17T05:36:10.889Z,100469.63
2023-07-17T05:38:38.649Z,100466.78
2023-07-17T05:41:05.181Z,100467.75
2023-07-17T05:43:32.956Z,100479.09
2023-07-17T05:45:59.850Z,100490.34
2023-07-17T05:48:26.365Z,100495.19
2023-07-17T05:50:52.811Z,100497.25
2023-07-17T05:53:19.327Z,100499.03
2023-07-17T05:55:45.863Z,100491.53
2023-07-17T05:58:12.407Z,100490.38
2023-07-17T06:00:38.924Z,100493.97
2023-07-17T06:03:05.396Z,100493.72
2023-07-17T06:05:36.322Z,100502.97
2023-07-17T06:08:02.820Z,100511.34
2023-07-17T06:10:30.717Z,100493.16
2023-07-17T06:12:57.453Z,100493.59
2023-07-17T06:15:23.891Z,100491.50
2023-07-17T06:17:50.398Z,100497.06
2023-07-17T06:20:17.288Z,100499.16
2023-07-17T06:22:43.890Z,100495.03
2023-07-17T06:25:10.446Z,100497.00
2023-07-17T06:27:36.903Z,100503.03
2023-07-17T06:30:03.898Z,100505.31
2023-07-17T06:32:30.420Z,100510.53
2023-07-17T06:34:57.018Z,100505.13
2023-07-17T06:37:23.905Z,100503.03
2023-07-17T06:39:50.407Z,100512.72
2023-07-17T06:42:16.905Z,100510.94
2023-07-17T06:44:43.365Z,100508.22
2023-07-17T06:47:20.771Z,100513.94
2023-07-17T06:49:52.049Z,100507.75
2023-07-17T06:52:18.578Z,100506.19
2023-07-17T06:54:57.459Z,100513.50
2023-07-17T06:57:29.258Z,100518.81
2023-07-17T06:59:55.717Z,100519.69
2023-07-17T07:02:22.248Z,100517.22
2023-07-17T07:04:48.754Z,100522.66
2023-07-17T07:07:18.195Z,100528.47
2023-07-17T07:09:45.387Z,100520.78
2023-07-17T07:12:11.871Z,100513.25
2023-07-17T07:14:38.418Z,100513.25
2023-07-17T07:17:04.981Z,100518.59
2023-07-17T07:19:31.465Z,100510.13
2023-07-17T07:21:57.945Z,100517.47
2023-07-17T07:24:24.534Z,100519.78
2023-07-17T07:26:50.997Z,100527.94
2023-07-17T07:29:18.231Z,100528.97
2023-07-17T07:31:44.727Z,100534.03
2023-07-17T07:34:11.245Z,100532.25
2023-07-17T07:36:37.933Z,100529.72
2023-07-17T07:39:06.752Z,100519.78
2023-07-17T07:41:37.093Z,100533.16
2023-07-17T07:44:03.635Z,100533.56
2023-07-17T07:46:30.375Z,100540.47
2023-07-17T07:48:57.012Z,100540.22
2023-07-17T07:51:23.526Z,100545.22
2023-07-17T07:53:50.133Z,100548.19
2023-07-17T07:56:17.313Z,100542.41
2023-07-17T07:58:44.099Z,100541.44
2023-07-17T08:01:10.682Z,100540.28
2023-07-17T08:03:37.378Z,100543.28
2023-07-17T08:06:04.047Z,100541.38
2023-07-17T08:08:31.007Z,100541.41
2023-07-17T08:10:57.485Z,100546.31
2023-07-17T08:13:23.998Z,100543.28
2023-07-17T08:15:50.852Z,100545.28
2023-07-17T08:18:17.950Z,100538.94
2023-07-17T08:20:44.854Z,100543.00
2023-07-17T08:23:11.477Z,100546.53
2023-07-17T08:25:38.295Z,100545.09
2023-07-17T08:28:04.807Z,100543.53
2023-07-17T08:30:31.295Z,100548.81
2023-07-17T08:32:57.795Z,100542.22
2023-07-17T08:35:24.302Z,100543.31
2023-07-17T08:37:50.753Z,100542.66
2023-07-17T08:40:17.259Z,100543.94
2023-07-17T08:42:47.817Z,100536.53
2023-07-17T08:45:15.200Z,100546.66
2023-07-17T08:47:43.027Z,100553.16
2023-07-17T08:50:12.349Z,100551.38
2023-07-17T08:52:39.894Z,100545.63
2023-07-17T08:55:07.214Z,100542.56
2023-07-17T08:57:35.390Z,100540.41
2023-07-17T09:00:02.683Z,100542.28
2023-07-17T09:02:29.417Z,100536.09
2023-07-17T09:04:55.933Z,100524.16
2023-07-17T09:07:22.374Z,100528.28
2023-07-17T09:10:21.889Z,100528.34
2023-07-17T09:12:54.955Z,100529.03
2023-07-17T09:15:21.536Z,100516.31
2023-07-17T09:17:48.199Z,100523.25
2023-07-17T09:20:17.400Z,100518.16
2023-07-17T09:22:44.649Z,100520.63
2023-07-17T09:25:12.210Z,100518.16
2023-07-17T09:27:48.407Z,100514.09
2023-07-17T09:30:23.287Z,100515.56
2023-07-17T09:32:51.210Z,100514.91
2023-07-17T09:35:24.413Z,100521.03
2023-07-17T09:37:51.974Z,100521.63
2023-07-17T09:40:20.162Z,100518.53
2023-07-17T09:42:53.580Z,100517.75
2023-07-17T09:45:21.130Z,100530.09
2023-07-17T09:47:50.893Z,100525.94
2023-07-17T09:50:19.968Z,100533.53
2023-07-17T09:52:46.539Z,100534.22
2023-07-17T09:55:14.601Z,100525.53
2023-07-17T09:57:44.040Z,100522.63
2023-07-17T10:00:14.531Z,100526.00
2023-07-17T10:02:48.559Z,100521.88
2023-07-17T10:05:15.706Z,100530.38
2023-07-17T10:07:46.618Z,100528.81
2023-07-17T10:10:13.932Z,100534.13
2023-07-17T10:12:42.496Z,100542.63
2023-07-17T10:15:10.587Z,100533.31
2023-07-17T10:17:37.524Z,100541.84
2023-07-17T10:20:08.280Z,100534.44
2023-07-17T10:22:35.821Z,100537.41
2023-07-17T10:25:18.498Z,100531.41
2023-07-17T10:27:47.305Z,100531.06
2023-07-17T10:30:31.285Z,100525.22
2023-07-17T10:33:04.665Z,100527.97
2023-07-17T10:35:45.817Z,100523.47
2023-07-17T10:38:13.824Z,100521.91
2023-07-17T10:40:40.436Z,100519.34
2023-07-17T10:43:22.250Z,100510.78
2023-07-17T10:45:49.537Z,100513.78
2023-07-17T10:48:16.440Z,100508.28
2023-07-17T10:50:54.282Z,100508.47
2023-07-17T10:53:22.194Z,100510.03
2023-07-17T10:55:48.866Z,100497.78
2023-07-17T10:58:21.619Z,100512.78
2023-07-17T11:00:49.135Z,100499.19
2023-07-17T11:03:21.794Z,100514.34
2023-07-17T11:05:48.254Z,100514.13
2023-07-17T11:08:15.087Z,100515.72
2023-07-17T11:10:45.178Z,100510.09
2023-07-17T11:13:12.199Z,100511.59
2023-07-17T11:15:39.037Z,100513.13
2023-07-17T11:18:06.984Z,100509.28
2023-07-17T11:20:34.231Z,100509.53
2023-07-17T11:23:01.145Z,100502.34
2023-07-17T11:25:34.282Z,100500.81
2023-07-17T11:28:01.841Z,100505.50
2023-07-17T11:30:30.498Z,100499.28
2023-07-17T11:33:05.514Z,100494.50
2023-07-17T11:35:38.601Z,100497.97
2023-07-17T11:38:09.719Z,100495.69
2023-07-17T11:40:56.370Z,100496.50
2023-07-17T11:43:34.800Z,100495.13
2023-07-17T11:46:03.238Z,100503.81
2023-07-17T11:48:31.532Z,100494.25
2023-07-17T11:50:59.183Z,100497.03
2023-07-17T11:53:25.811Z,100487.28
2023-07-17T11:55:52.404Z,100489.28
2023-07-17T11:58:23.897Z,100489.94
2023-07-17T12:00:54.736Z,100481.06
2023-07-17T12:03:21.702Z,100480.41
2023-07-17T12:05:48.766Z,100477.47
2023-07-17T12:08:15.402Z,100485.34
2023-07-17T12:10:42.083Z,100483.97
2023-07-17T12:13:09.196Z,100483.63
2023-07-17T12:15:36.630Z,100482.03
2023-07-17T12:18:03.479Z,100485.09
2023-07-17T12:20:33.204Z,100476.78
2023-07-17T12:23:00.440Z,100486.56
2023-07-17T12:25:29.646Z,100475.16
2023-07-17T12:28:00.302Z,100485.09
2023-07-17T12:30:26.960Z,100480.56
2023-07-17T12:32:53.625Z,100480.69
2023-07-17T12:35:20.174Z,100481.53
2023-07-17T12:37:46.632Z,100472.41
2023-07-17T12:40:13.164Z,100467.03
2023-07-17T12:42:40.519Z,100470.69
2023-07-17T12:45:07.877Z,100473.81
2023-07-17T12:47:34.750Z,100459.28
2023-07-17T12:50:02.138Z,100465.94
2023-07-17T12:52:29.011Z,100459.50
2023-07-17T12:54:55.550Z,100461.06
2023-07-17T12:57:22.116Z,100456.38
2023-07-17T12:59:48.601Z,100464.13
2023-07-17T13:02:15.204Z,100469.78
2023-07-17T13:04:41.746Z,100463.41
2023-07-17T13:07:08.208Z,100466.03
2023-07-17T13:09:35.356Z,100462.50
2023-07-17T13:12:02.338Z,100466.69
2023-07-17T13:14:28.794Z,100472.13
2023-07-17T13:16:57.782Z,100467.41
2023-07-17T13:19:24.636Z,100460.16
2023-07-17T13:21:51.080Z,100452.72
2023-07-17T13:24:20.143Z,100459.47
2023-07-17T13:26:46.660Z,100458.34
2023-07-17T13:29:13.152Z,100451.00
2023-07-17T13:31:39.674Z,100451.72
2023-07-17T13:34:06.219Z,100450.81
2023-07-17T13:36:32.677Z,100462.22
2023-07-17T13:38:59.217Z,100451.78
2023-07-17T13:41:45.569Z,100455.03
2023-07-17T13:44:14.811Z,100462.59
2023-07-17T13:46:46.537Z,100465.91
2023-07-17T13:49:13.232Z,100457.19
2023-07-17T13:51:40.465Z,100457.88
2023-07-17T13:54:07.892Z,100450.44
2023-07-17T13:59:08.477Z,100444.19
2023-07-17T14:01:35.789Z,100446.28
2023-07-17T14:04:05.471Z,100460.47
2023-07-17T14:06:32.884Z,100458.63
2023-07-17T14:08:59.863Z,100450.94
2023-07-17T14:11:29.493Z,100459.06
2023-07-17T14:13:59.710Z,100455.03
2023-07-17T14:16:26.277Z,100453.97
2023-07-17T14:18:52.830Z,100451.50
2023-07-17T14:21:19.323Z,100454.59
2023-07-17T14:23:45.825Z,100447.75
2023-07-17T14:26:12.411Z,100450.91
2023-07-17T14:28:38.871Z,100449.94
2023-07-17T14:31:06.339Z,100455.91
2023-07-17T14:33:32.808Z,100441.38
2023-07-17T14:35:59.405Z,100438.00
2023-07-17T14:38:25.904Z,100442.75
2023-07-17T14:40:52.959Z,100445.28
2023-07-17T14:43:19.399Z,100441.69
2023-07-17T14:45:45.907Z,100439.59
2023-07-17T14:48:12.578Z,100433.72
2023-07-17T14:50:39.548Z,100439.81
2023-07-17T14:53:06.132Z,100433.50
2023-07-17T14:55:35.184Z,100423.56
2023-07-17T14:58:03.337Z,100424.56
2023-07-17T15:00:29.860Z,100448.66
2023-07-17T15:02:56.528Z,100437.06
2023-07-17T15:05:24.162Z,100431.44
2023-07-17T15:07:50.768Z,100426.94
2023-07-17T15:10:17.300Z,100421.13
2023-07-17T15:12:43.937Z,100429.63
2023-07-17T15:15:11.646Z,100426.34
2023-07-17T15:17:38.573Z,100433.81
2023-07-17T15:20:06.818Z,100430.81
2023-07-17T15:22:33.377Z,100429.44
2023-07-17T15:24:59.936Z,100431.53
2023-07-17T15:27:26.416Z,100441.47
2023-07-17T15:29:52.888Z,100430.28
2023-07-17T15:32:19.431Z,100433.81
2023-07-17T15:34:46.140Z,100438.19
2023-07-17T15:37:12.663Z,100442.31
2023-07-17T15:39:39.205Z,100443.56
2023-07-17T15:42:05.916Z,100437.44
2023-07-17T15:44:32.495Z,100437.84
2023-07-17T15:46:59.080Z,100435.16
2023-07-17T15:49:25.621Z,100437.28
2023-07-17T15:51:52.273Z,100438.16
2023-07-17T15:54:19.090Z,100451.47
2023-07-17T15:56:45.881Z,100442.50
2023-07-17T15:59:12.948Z,100447.56
2023-07-17T16:01:39.732Z,100449.41
2023-07-17T16:04:06.408Z,100450.63
2023-07-17T16:06:32.904Z,100453.47
2023-07-17T16:08:59.350Z,100457.75
2023-07-17T16:11:25.945Z,100449.94
2023-07-17T16:13:52.428Z,100449.34
2023-07-17T16:16:19.148Z,100451.06
2023-07-17T16:18:45.920Z,100450.25
2023-07-17T16:21:12.559Z,100451.41
2023-07-17T16:23:39.026Z,100443.69
2023-07-17T16:26:07.291Z,100449.00
2023-07-17T16:28:33.804Z,100452.78
2023-07-17T16:31:00.531Z,100448.47
2023-07-17T16:33:27.084Z,100454.22
2023-07-17T16:35:53.544Z,100451.41
2023-07-17T16:38:19.990Z,100448.66
2023-07-17T16:40:48.462Z,100452.72
2023-07-17T16:43:14.936Z,100454.94
2023-07-17T16:45:41.486Z,100457.22
2023-07-17T16:48:08.187Z,100454.59
2023-07-17T16:50:35.290Z,100460.13
2023-07-17T16:53:01.870Z,100456.59
2023-07-17T16:55:28.421Z,100454.22
2023-07-17T16:57:54.919Z,100459.69
2023-07-17T17:00:23.098Z,100457.56
2023-07-17T17:02:49.894Z,100459.91
2023-07-17T17:05:16.537Z,100465.03
2023-07-17T17:07:43.013Z,100458.59
2023-07-17T17:10:10.312Z,100461.56
2023-07-17T17:12:36.822Z,100469.56
2023-07-17T17:15:04.120Z,100469.28
2023-07-17T17:17:33.078Z,100473.56
2023-07-17T17:19:59.944Z,100479.59
2023-07-17T17:22:26.610Z,100470.28
2023-07-17T17:24:53.108Z,100489.31
2023-07-17T17:27:20.257Z,100476.84
2023-07-17T17:29:46.764Z,100491.47
2023-07-17T17:32:13.420Z,100487.00
2023-07-17T17:34:39.951Z,100490.53
2023-07-17T17:37:06.415Z,100483.09
2023-07-17T17:39:32.913Z,100489.78
2023-07-17T17:41:59.381Z,100499.78
2023-07-17T17:44:25.847Z,100497.78
2023-07-17T17:46:52.351Z,100489.16
2023-07-17T17:49:18.881Z,100488.88
2023-07-17T17:51:45.380Z,100484.41
2023-07-17T17:54:11.876Z,100486.84
2023-07-17T17:56:38.350Z,100489.09
2023-07-17T17:59:04.820Z,100488.84
2023-07-17T18:01:31.434Z,100491.72
2023-07-17T18:03:59.097Z,100490.78
2023-07-17T18:06:25.864Z,100492.63
2023-07-17T18:08:52.322Z,100492.88
2023-07-17T18:11:19.082Z,100500.09
2023-07-17T18:13:45.990Z,100500.72
2023-07-17T18:18:39.253Z,100508.59
2023-07-17T18:21:07.500Z,100509.31
2023-07-17T18:23:34.455Z,100515.31
2023-07-17T18:26:01.079Z,100517.03
2023-07-17T18:28:27.553Z,100516.72
2023-07-17T18:30:54.151Z,100518.97
2023-07-17T18:33:21.743Z,100521.91
2023-07-17T18:35:48.613Z,100524.94
2023-07-17T18:38:16.223Z,100533.59
2023-07-17T18:40:42.800Z,100528.38
2023-07-17T18:43:09.310Z,100530.66
2023-07-17T18:45:35.809Z,100539.56
2023-07-17T18:48:02.329Z,100532.31
2023-07-17T18:50:28.826Z,100533.34
2023-07-17T18:52:56.306Z,100542.38
2023-07-17T18:55:24.581Z,100546.50
2023-07-17T18:57:51.042Z,100538.53
2023-07-17T19:00:18.395Z,100545.50
2023-07-17T19:02:44.866Z,100545.78
2023-07-17T19:05:11.369Z,100555.44
2023-07-17T19:07:37.926Z,100558.97
2023-07-17T19:10:05.630Z,100565.38
2023-07-17T19:12:32.170Z,100562.78
2023-07-17T19:14:58.823Z,100576.69
2023-07-17T19:17:25.455Z,100571.06
2023-07-17T19:19:52.016Z,100586.75
2023-07-17T19:22:18.488Z,100586.91
2023-07-17T19:24:44.925Z,100595.16
2023-07-17T19:27:11.415Z,100592.19
2023-07-17T19:29:38.117Z,100585.66
2023-07-17T19:32:04.971Z,100591.19
2023-07-17T19:34:31.491Z,100591.28
2023-07-17T19:36:58.222Z,100592.38
2023-07-17T19:39:24.701Z,100597.66
2023-07-17T19:41:52.035Z,100601.50
2023-07-17T19:44:18.689Z,100608.91
2023-07-17T19:46:45.180Z,100606.97
2023-07-17T19:49:12.151Z,100616.72
2023-07-17T19:51:39.375Z,100617.81
2023-07-17T19:54:05.912Z,100620.41
2023-07-17T19:56:32.359Z,100622.22
2023-07-17T19:58:59.510Z,100628.59
2023-07-17T20:01:28.589Z,100624.69
2023-07-17T20:03:55.600Z,100625.31
2023-07-17T20:06:23.829Z,100628.59
2023-07-17T20:08:50.703Z,100632.25
2023-07-17T20:11:17.622Z,100635.97
2023-07-17T20:13:44.224Z,100637.88
2023-07-17T20:16:10.734Z,100644.22
2023-07-17T20:18:37.585Z,100637.75
2023-07-17T20:21:04.148Z,100645.38
2023-07-17T20:23:30.814Z,100649.03
2023-07-17T20:25:59.074Z,100649.66
2023-07-17T20:28:25.584Z,100650.00
2023-07-17T20:30:52.124Z,100652.41
2023-07-17T20:33:18.629Z,100656.16
2023-07-17T20:35:45.381Z,100661.09
2023-07-17T20:38:11.843Z,100670.44
2023-07-17T20:40:39.108Z,100672.75
2023-07-17T20:43:05.597Z,100672.53
2023-07-17T20:45:46.427Z,100675.34
2023-07-17T20:48:13.088Z,100672.75
2023-07-17T20:50:39.649Z,100671.31
2023-07-17T20:53:06.182Z,100676.34
2023-07-17T20:55:32.647Z,100672.84
2023-07-17T20:57:59.104Z,100681.03
2023-07-17T21:00:25.847Z,100683.38
2023-07-17T21:02:52.360Z,100700.00
2023-07-17T21:05:23.272Z,100695.41
2023-07-17T21:07:49.832Z,100702.78
2023-07-17T21:10:16.316Z,100716.63
2023-07-17T21:12:42.744Z,100721.75
2023-07-17T21:15:10.125Z,100720.88
2023-07-17T21:17:36.607Z,100723.72
2023-07-17T21:20:04.788Z,100721.13
2023-07-17T21:22:31.348Z,100732.91
2023-07-17T21:24:57.852Z,100725.16
2023-07-17T21:27:24.360Z,100719.94
2023-07-17T21:29:50.883Z,100732.63
2023-07-17T21:32:17.763Z,100727.38
2023-07-17T21:34:44.202Z,100728.78
2023-07-17T21:37:12.106Z,100738.53
2023-07-17T21:39:39.711Z,100744.38
2023-07-17T21:42:06.652Z,100747.22
2023-07-17T21:44:33.132Z,100755.31
2023-07-17T21:46:59.629Z,100754.44
2023-07-17T21:49:26.115Z,100751.47
2023-07-17T21:51:52.599Z,100763.19
2023-07-17T21:54:19.103Z,100767.00
2023-07-17T21:56:45.615Z,100767.88
2023-07-17T21:59:12.072Z,100768.78
2023-07-17T22:01:38.797Z,100768.31
2023-07-17T22:04:05.700Z,100756.13
2023-07-17T22:06:32.407Z,100767.84
2023-07-17T22:08:58.885Z,100769.44
2023-07-17T22:11:25.590Z,100778.66
2023-07-17T22:13:52.035Z,100776.88
2023-07-17T22:16:18.588Z,100785.09
2023-07-17T22:18:45.162Z,100777.88
2023-07-17T22:21:11.819Z,100789.22
2023-07-17T22:23:38.421Z,100789.38
2023-07-17T22:26:04.911Z,100790.91
2023-07-17T22:28:31.451Z,100788.59
2023-07-17T22:30:57.923Z,100789.56
2023-07-17T22:33:24.943Z,100803.19
2023-07-17T22:35:51.671Z,100807.25
2023-07-17T22:38:18.124Z,100799.97
2023-07-17T22:40:45.009Z,100801.78
2023-07-17T22:43:12.457Z,100807.06
2023-07-17T22:45:39.161Z,100806.47
2023-07-17T22:48:05.865Z,100813.41
2023-07-17T22:50:32.363Z,100811.91
2023-07-17T22:52:58.872Z,100816.41
2023-07-17T22:55:25.367Z,100812.06
2023-07-17T22:57:51.844Z,100807.31
2023-07-17T23:00:18.965Z,100810.81
2023-07-17T23:02:45.574Z,100806.91
2023-07-17T23:05:12.042Z,100816.25
2023-07-17T23:07:38.629Z,100814.84
2023-07-17T23:10:06.104Z,100814.41
2023-07-17T23:12:32.703Z,100804.41
2023-07-17T23:14:59.297Z,100814.00
2023-07-17T23:17:25.864Z,100816.09
2023-07-17T23:19:53.691Z,100815.22
2023-07-17T23:22:20.907Z,100810.72
2023-07-17T23:24:47.385Z,100810.63
2023-07-17T23:27:13.855Z,100816.59
2023-07-17T23:29:40.672Z,100813.22
2023-07-17T23:32:08.148Z,100825.38
2023-07-17T23:34:35.442Z,100814.66
2023-07-17T23:37:02.095Z,100813.41
2023-07-17T23:39:29.522Z,100822.03
2023-07-17T23:41:56.135Z,100810.84
2023-07-17T23:44:27.249Z,100824.53
2023-07-17T23:46:53.681Z,100822.81
2023-07-17T23:49:20.440Z,100825.78
2023-07-17T23:51:47.261Z,100820.97
2023-07-17T23:54:13.672Z,100824.03
2023-07-17T23:56:40.611Z,100822.16
2023-07-17T23:59:07.101Z,100823.34
